Time;durP1;ratioP1;P1;durP2;ratioP2;P2;SDS_P1;SDS_P2;PMS_P1;PMS_P2;Temp;Humidity;BMP_temperature;BMP_pressure;BME280_temperature;BME280_humidity;BME280_pressure;Samples;Min_cycle;Max_cycle;Signal;HPM_P1;HPM_P2
2023/11/06 00:00:12;;;;;;;7.28;3.78;;;9.50;99.90;;;;;;5051891;28;20045;-73
2023/11/06 00:02:37;;;;;;;8.27;2.30;;;9.50;99.90;;;;;;5033601;28;20041;-74
2023/11/06 00:05:04;;;;;;;4.35;2.40;;;9.40;99.90;;;;;;5033812;28;20439;-73
2023/11/06 00:07:30;;;;;;;6.53;2.40;;;9.40;99.90;;;;;;5033983;28;20060;-73
2023/11/06 00:09:57;;;;;;;6.72;2.40;;;9.40;99.90;;;;;;5017442;28;20037;-73
2023/11/06 00:12:23;;;;;;;9.77;3.13;;;9.30;99.90;;;;;;5033657;28;20086;-73
2023/11/06 00:14:49;;;;;;;6.53;2.50;;;9.30;99.90;;;;;;5033808;28;20554;-73
2023/11/06 00:17:14;;;;;;;7.70;2.88;;;9.30;99.90;;;;;;5034069;28;20041;-73
2023/11/06 00:19:42;;;;;;;5.38;2.60;;;9.30;99.90;;;;;;5038231;28;20037;-73
2023/11/06 00:22:08;;;;;;;8.95;2.40;;;9.30;99.90;;;;;;5037671;28;20037;-73
2023/11/06 00:24:33;;;;;;;7.85;2.72;;;9.30;99.90;;;;;;5037802;28;20037;-73
2023/11/06 00:26:59;;;;;;;8.73;2.90;;;9.30;99.90;;;;;;5037704;28;20061;-73
2023/11/06 00:29:24;;;;;;;11.55;2.75;;;9.30;99.90;;;;;;5038120;28;20048;-73
2023/11/06 00:31:50;;;;;;;7.82;2.55;;;9.30;99.90;;;;;;5037376;28;20124;-73
2023/11/06 00:34:16;;;;;;;8.10;3.25;;;9.20;99.90;;;;;;5037508;28;20174;-73
2023/11/06 00:36:41;;;;;;;12.95;2.80;;;9.10;99.90;;;;;;5037738;28;20032;-73
2023/11/06 00:39:12;;;;;;;8.88;2.53;;;9.10;99.90;;;;;;5037572;28;20045;-74
2023/11/06 00:41:39;;;;;;;7.97;2.75;;;9.10;99.90;;;;;;5037322;28;20040;-73
2023/11/06 00:44:05;;;;;;;5.05;2.35;;;9.10;99.90;;;;;;5021239;28;20110;-73
2023/11/06 00:46:30;;;;;;;5.88;2.67;;;9.10;99.90;;;;;;5037476;28;20033;-73
2023/11/06 00:48:56;;;;;;;10.95;3.63;;;9.10;99.90;;;;;;5020785;28;20049;-73
2023/11/06 00:51:22;;;;;;;11.05;2.38;;;9.10;99.90;;;;;;5037090;28;20090;-73
2023/11/06 00:53:47;;;;;;;8.43;2.42;;;9.10;99.90;;;;;;5037332;28;20128;-73
2023/11/06 00:56:13;;;;;;;6.85;2.45;;;9.10;99.90;;;;;;5055361;28;20041;-73
2023/11/06 00:58:38;;;;;;;9.82;3.63;;;9.10;99.90;;;;;;5055110;28;20036;-73
2023/11/06 01:01:05;;;;;;;11.32;2.92;;;9.10;99.90;;;;;;5037444;28;20043;-73
2023/11/06 01:03:32;;;;;;;15.20;3.72;;;9.10;99.90;;;;;;5054945;28;20048;-73
2023/11/06 01:05:58;;;;;;;9.55;2.67;;;9.20;99.90;;;;;;5037326;28;20452;-73
2023/11/06 01:08:24;;;;;;;10.30;3.03;;;9.20;99.90;;;;;;5055112;28;20115;-73
2023/11/06 01:10:50;;;;;;;8.80;2.60;;;9.20;99.90;;;;;;5036887;28;20072;-73
2023/11/06 01:13:15;;;;;;;7.72;3.10;;;9.20;99.90;;;;;;5037127;28;20044;-74
2023/11/06 01:15:42;;;;;;;5.65;2.90;;;9.20;99.90;;;;;;5054903;28;20040;-73
2023/11/06 01:18:09;;;;;;;12.32;2.45;;;9.20;99.90;;;;;;5036806;28;20037;-73
2023/11/06 01:20:35;;;;;;;10.30;2.83;;;9.10;99.90;;;;;;5036584;28;20037;-73
2023/11/06 01:23:01;;;;;;;8.38;2.75;;;9.10;99.90;;;;;;5036607;28;20029;-73
2023/11/06 01:25:26;;;;;;;5.88;3.08;;;9.00;99.90;;;;;;5036762;28;20094;-73
2023/11/06 01:27:52;;;;;;;7.75;2.63;;;9.10;99.90;;;;;;5054600;28;20045;-73
2023/11/06 01:30:18;;;;;;;5.13;2.85;;;9.10;99.90;;;;;;5035314;28;20519;-73
2023/11/06 01:32:44;;;;;;;6.75;2.30;;;9.10;99.90;;;;;;5036778;28;20048;-74
2023/11/06 01:35:11;;;;;;;4.35;2.30;;;9.10;99.90;;;;;;5036672;28;20033;-73
2023/11/06 01:37:38;;;;;;;6.80;3.20;;;9.10;99.90;;;;;;5020246;28;20036;-73
2023/11/06 01:40:07;;;;;;;5.05;2.08;;;9.10;99.90;;;;;;5036497;28;20068;-73
2023/11/06 01:42:32;;;;;;;7.68;2.30;;;9.10;99.90;;;;;;5054022;28;20087;-73
2023/11/06 01:44:58;;;;;;;6.53;2.50;;;9.10;99.90;;;;;;5036469;28;20136;-73
2023/11/06 01:47:24;;;;;;;4.13;1.60;;;9.10;99.90;;;;;;5036705;28;20044;-73
2023/11/06 01:49:50;;;;;;;9.30;2.20;;;9.10;99.90;;;;;;5054248;28;20041;-73
2023/11/06 01:52:20;;;;;;;6.65;2.53;;;9.20;99.90;;;;;;5036093;28;20056;-73
2023/11/06 01:54:45;;;;;;;5.97;2.25;;;9.20;99.90;;;;;;5019889;28;20041;-73
2023/11/06 01:57:14;;;;;;;3.60;2.00;;;9.20;99.90;;;;;;5036963;28;20052;-73
2023/11/06 01:59:39;;;;;;;5.22;1.90;;;9.20;99.90;;;;;;5035884;28;20041;-73
2023/11/06 02:02:06;;;;;;;6.30;2.15;;;9.20;99.90;;;;;;5036452;28;20144;-73
2023/11/06 02:04:32;;;;;;;7.18;2.35;;;9.30;99.90;;;;;;5036175;28;20040;-73
2023/11/06 02:06:58;;;;;;;4.88;2.10;;;9.20;99.90;;;;;;5035781;28;20041;-73
2023/11/06 02:09:28;;;;;;;7.03;2.70;;;9.20;99.90;;;;;;5035839;28;20492;-73
2023/11/06 02:11:54;;;;;;;3.42;1.77;;;9.20;99.90;;;;;;5035535;28;20107;-73
2023/11/06 02:14:19;;;;;;;5.57;2.20;;;9.20;99.90;;;;;;5036288;28;20565;-74
2023/11/06 02:16:45;;;;;;;4.55;2.00;;;9.20;99.90;;;;;;5036175;28;20037;-73
2023/11/06 02:19:11;;;;;;;7.55;3.17;;;9.20;99.90;;;;;;5035958;28;20072;-73
2023/11/06 02:21:36;;;;;;;7.28;3.08;;;9.20;99.90;;;;;;5035902;28;20040;-73
2023/11/06 02:24:03;;;;;;;6.05;2.40;;;9.30;99.90;;;;;;5036301;28;20520;-73
2023/11/06 02:26:32;;;;;;;6.80;3.10;;;9.30;99.90;;;;;;5053338;28;20045;-73
2023/11/06 02:28:57;;;;;;;6.38;3.40;;;9.30;99.90;;;;;;5035776;28;20029;-74
2023/11/06 02:31:23;;;;;;;11.23;4.00;;;9.40;99.90;;;;;;5035826;28;20512;-73
2023/11/06 02:33:48;;;;;;;7.65;4.80;;;9.40;99.90;;;;;;5019403;28;20099;-73
2023/11/06 02:36:14;;;;;;;8.27;4.60;;;9.40;99.90;;;;;;5053321;28;20037;-73
2023/11/06 02:38:40;;;;;;;9.05;4.75;;;9.40;99.90;;;;;;5018664;28;20033;-73
2023/11/06 02:41:05;;;;;;;20.35;6.22;;;9.40;99.90;;;;;;5052613;28;20416;-73
2023/11/06 02:43:31;;;;;;;13.95;5.93;;;9.40;99.90;;;;;;5052924;28;20037;-73
2023/11/06 02:45:56;;;;;;;11.15;6.00;;;9.50;99.90;;;;;;5035643;28;20040;-73
2023/11/06 02:48:22;;;;;;;14.30;6.70;;;9.40;99.90;;;;;;5035276;28;20097;-73
2023/11/06 02:50:49;;;;;;;9.00;6.00;;;9.50;99.90;;;;;;5034880;28;20659;-73
2023/11/06 02:53:15;;;;;;;12.73;6.35;;;9.40;99.90;;;;;;5034788;28;20072;-73
2023/11/06 02:55:40;;;;;;;13.10;6.45;;;9.40;99.90;;;;;;5034909;28;20508;-74
2023/11/06 02:58:06;;;;;;;13.88;6.47;;;9.40;99.90;;;;;;5034712;28;20064;-74
2023/11/06 03:00:32;;;;;;;11.57;6.32;;;9.40;99.90;;;;;;5034808;28;20102;-74
2023/11/06 03:02:57;;;;;;;15.98;5.85;;;9.40;99.90;;;;;;5034663;28;20037;-73
2023/11/06 03:05:23;;;;;;;15.10;5.60;;;9.40;99.90;;;;;;5035409;28;20123;-74
2023/11/06 03:07:49;;;;;;;9.20;6.63;;;9.40;99.90;;;;;;5035258;28;20056;-74
2023/11/06 03:10:14;;;;;;;11.65;5.28;;;9.30;99.90;;;;;;5034401;28;20116;-74
2023/11/06 03:12:41;;;;;;;12.60;6.00;;;9.40;99.90;;;;;;5034749;28;20037;-74
2023/11/06 03:15:08;;;;;;;13.38;5.68;;;9.30;99.90;;;;;;5052793;28;20139;-74
2023/11/06 03:17:33;;;;;;;9.35;5.45;;;9.40;99.90;;;;;;5034757;28;20033;-74
2023/11/06 03:19:59;;;;;;;11.10;5.28;;;9.30;99.90;;;;;;5034567;28;20107;-74
2023/11/06 03:22:25;;;;;;;12.35;5.80;;;9.40;99.90;;;;;;5034239;28;20404;-74
2023/11/06 03:24:50;;;;;;;8.80;5.40;;;9.40;99.90;;;;;;5052757;28;20086;-74
2023/11/06 03:27:16;;;;;;;11.00;4.60;;;9.30;99.90;;;;;;5052581;28;20037;-74
2023/11/06 03:29:42;;;;;;;11.57;4.85;;;9.40;99.90;;;;;;5018188;28;20097;-74
2023/11/06 03:32:07;;;;;;;8.85;4.18;;;9.40;99.90;;;;;;5052359;28;20414;-74
2023/11/06 03:34:34;;;;;;;8.38;3.70;;;9.40;99.90;;;;;;5034518;28;20124;-73
2023/11/06 03:36:59;;;;;;;8.73;3.70;;;9.40;99.90;;;;;;5034821;28;20037;-74
2023/11/06 03:39:25;;;;;;;7.05;3.78;;;9.40;99.90;;;;;;5018408;28;20045;-74
2023/11/06 03:41:50;;;;;;;14.20;5.00;;;9.40;99.90;;;;;;5052220;28;20318;-73
2023/11/06 03:44:16;;;;;;;7.70;3.97;;;9.40;99.90;;;;;;5034364;28;20041;-74
2023/11/06 03:46:42;;;;;;;9.50;4.43;;;9.40;99.90;;;;;;5018177;28;20144;-74
2023/11/06 03:49:07;;;;;;;10.18;4.38;;;9.50;99.90;;;;;;5034029;28;20492;-74
2023/11/06 03:51:33;;;;;;;8.70;4.60;;;9.50;99.90;;;;;;5033618;28;20127;-74
2023/11/06 03:53:58;;;;;;;9.60;4.63;;;9.60;99.90;;;;;;5017573;28;20043;-74
2023/11/06 03:56:24;;;;;;;7.68;4.95;;;9.60;99.90;;;;;;5034029;28;20500;-74
2023/11/06 03:58:49;;;;;;;9.75;4.32;;;9.60;99.90;;;;;;5034100;28;20044;-74
2023/11/06 04:01:15;;;;;;;9.20;4.15;;;9.50;99.90;;;;;;5034359;28;20072;-74
2023/11/06 04:03:41;;;;;;;11.27;5.45;;;9.60;99.90;;;;;;5033891;28;20667;-74
2023/11/06 04:06:08;;;;;;;14.95;4.97;;;9.60;99.90;;;;;;5034176;28;20041;-74
2023/11/06 04:08:35;;;;;;;8.57;5.50;;;9.60;99.90;;;;;;5017369;28;20041;-74
2023/11/06 04:11:01;;;;;;;11.10;5.25;;;9.60;99.90;;;;;;5033969;28;20089;-74
2023/11/06 04:13:27;;;;;;;13.10;5.53;;;9.60;99.90;;;;;;5034284;28;20135;-74
2023/11/06 04:15:52;;;;;;;19.25;6.55;;;9.60;99.90;;;;;;5034164;28;20041;-74
2023/11/06 04:18:18;;;;;;;13.73;6.15;;;9.60;99.90;;;;;;5033841;28;20037;-74
2023/11/06 04:20:43;;;;;;;14.30;7.65;;;9.60;99.90;;;;;;5033923;28;20073;-74
2023/11/06 04:23:09;;;;;;;16.50;7.30;;;9.60;99.90;;;;;;5017515;28;20040;-74
2023/11/06 04:25:38;;;;;;;13.85;7.22;;;9.70;99.90;;;;;;5017926;28;20522;-74
2023/11/06 04:28:08;;;;;;;16.67;7.13;;;9.70;99.90;;;;;;5033927;28;20037;-73
2023/11/06 04:30:34;;;;;;;16.90;7.50;;;9.60;99.90;;;;;;5034507;28;20065;-74
2023/11/06 04:33:00;;;;;;;17.20;7.47;;;9.70;99.90;;;;;;5033840;28;20558;-74
2023/11/06 04:35:27;;;;;;;10.20;6.50;;;9.70;99.90;;;;;;5017430;28;20402;-74
2023/11/06 04:37:52;;;;;;;17.00;7.93;;;9.70;99.90;;;;;;5051946;28;20063;-74
2023/11/06 04:40:19;;;;;;;16.83;7.82;;;9.70;99.90;;;;;;5051739;28;20037;-74
2023/11/06 04:42:45;;;;;;;16.75;6.82;;;9.70;99.90;;;;;;5033794;28;20496;-74
2023/11/06 04:45:11;;;;;;;15.95;6.75;;;9.60;99.90;;;;;;5034202;28;20045;-74
2023/11/06 04:47:36;;;;;;;11.75;6.25;;;9.70;99.90;;;;;;5033515;28;20571;-74
2023/11/06 04:50:03;;;;;;;11.55;6.95;;;9.60;99.90;;;;;;5051618;28;20131;-74
2023/11/06 04:52:29;;;;;;;14.23;6.80;;;9.70;99.90;;;;;;5033532;28;20076;-74
2023/11/06 04:54:55;;;;;;;17.13;6.40;;;9.70;99.90;;;;;;5033717;28;20098;-74
2023/11/06 04:57:20;;;;;;;13.40;7.28;;;9.70;99.90;;;;;;5017548;28;20041;-74
2023/11/06 04:59:46;;;;;;;14.40;6.10;;;9.70;99.90;;;;;;5033447;28;20520;-74
2023/11/06 05:02:11;;;;;;;16.45;6.40;;;9.80;99.90;;;;;;5033141;28;20044;-74
2023/11/06 05:04:37;;;;;;;12.68;5.95;;;9.70;99.90;;;;;;5035924;28;20454;-74
2023/11/06 05:07:04;;;;;;;11.60;5.60;;;9.70;99.90;;;;;;5036852;28;20033;-74
2023/11/06 05:09:30;;;;;;;14.27;5.90;;;9.70;99.90;;;;;;5036927;28;20072;-74
2023/11/06 05:11:55;;;;;;;16.25;7.40;;;9.70;99.90;;;;;;5019970;28;20083;-73
2023/11/06 05:14:21;;;;;;;13.93;5.60;;;9.70;99.90;;;;;;5020268;28;20040;-74
2023/11/06 05:16:47;;;;;;;20.05;7.05;;;9.80;99.90;;;;;;5036652;28;20044;-74
2023/11/06 05:19:13;;;;;;;16.63;7.60;;;9.80;99.90;;;;;;5054355;28;20048;-74
2023/11/06 05:21:38;;;;;;;13.57;7.75;;;9.80;99.90;;;;;;5039675;28;20514;-74
2023/11/06 05:24:04;;;;;;;13.77;6.68;;;9.70;99.90;;;;;;5056542;28;20167;-74
2023/11/06 05:26:30;;;;;;;13.43;7.95;;;9.80;99.90;;;;;;5056536;28;20040;-74
2023/11/06 05:28:55;;;;;;;20.60;7.57;;;9.80;99.90;;;;;;5056499;28;20044;-74
2023/11/06 05:31:22;;;;;;;14.65;7.72;;;9.70;99.90;;;;;;5074101;28;20055;-74
2023/11/06 05:33:51;;;;;;;16.00;8.55;;;9.80;99.90;;;;;;5056522;28;20044;-74
2023/11/06 05:36:17;;;;;;;19.58;8.98;;;9.80;99.90;;;;;;5056240;28;20049;-74
2023/11/06 05:38:43;;;;;;;19.77;8.82;;;9.70;99.90;;;;;;5074042;28;20555;-74
2023/11/06 05:41:10;;;;;;;18.92;9.63;;;9.70;99.90;;;;;;5056656;28;20442;-73
2023/11/06 05:43:36;;;;;;;18.85;9.50;;;9.80;99.90;;;;;;5056502;28;20041;-74
2023/11/06 05:46:02;;;;;;;20.67;9.88;;;9.80;99.90;;;;;;5039513;28;20072;-74
2023/11/06 05:48:28;;;;;;;19.40;10.63;;;9.80;99.90;;;;;;5073916;28;20515;-74
2023/11/06 05:50:53;;;;;;;16.55;11.15;;;9.80;99.90;;;;;;5073810;28;20105;-74
2023/11/06 05:53:19;;;;;;;22.27;10.18;;;9.70;99.90;;;;;;5073873;28;20110;-73
2023/11/06 05:55:47;;;;;;;18.67;11.75;;;9.70;99.90;;;;;;5055967;28;20040;-73
2023/11/06 05:58:14;;;;;;;20.25;9.70;;;9.70;99.90;;;;;;5039578;28;20040;-74
2023/11/06 06:00:40;;;;;;;21.52;10.55;;;9.80;99.90;;;;;;5039350;28;20119;-74
2023/11/06 06:03:06;;;;;;;26.23;11.57;;;9.70;99.90;;;;;;5055718;28;20068;-74
2023/11/06 06:05:32;;;;;;;21.98;11.00;;;9.70;99.90;;;;;;5055817;28;20627;-74
2023/11/06 06:07:57;;;;;;;27.45;12.48;;;9.70;99.90;;;;;;5055723;28;20051;-74
2023/11/06 06:10:23;;;;;;;24.95;12.38;;;9.80;99.90;;;;;;5055661;28;20451;-74
2023/11/06 06:12:49;;;;;;;22.30;12.75;;;9.80;99.90;;;;;;5055626;28;20045;-74
2023/11/06 06:15:14;;;;;;;25.70;13.15;;;9.70;99.90;;;;;;5054825;28;20397;-74
2023/11/06 06:17:40;;;;;;;25.02;12.20;;;9.80;99.90;;;;;;5055756;28;20051;-74
2023/11/06 06:20:11;;;;;;;26.00;12.10;;;9.80;99.90;;;;;;5038959;28;20174;-74
2023/11/06 06:22:36;;;;;;;21.00;11.82;;;9.70;99.90;;;;;;5039134;28;20060;-74
2023/11/06 06:25:02;;;;;;;24.50;11.98;;;9.80;99.90;;;;;;5055530;28;20040;-74
2023/11/06 06:27:28;;;;;;;28.20;12.25;;;9.80;99.90;;;;;;5055363;28;20129;-74
2023/11/06 06:29:54;;;;;;;30.83;13.30;;;9.70;99.90;;;;;;5055106;28;20076;-74
2023/11/06 06:32:20;;;;;;;22.65;12.60;;;9.70;99.90;;;;;;5055166;28;20483;-74
2023/11/06 06:34:45;;;;;;;21.65;12.18;;;9.80;99.90;;;;;;5072942;28;20124;-74
2023/11/06 06:37:11;;;;;;;26.85;12.10;;;9.80;99.90;;;;;;5055045;28;20206;-74
2023/11/06 06:39:36;;;;;;;24.15;12.32;;;9.70;99.90;;;;;;5055003;28;20029;-74
2023/11/06 06:42:02;;;;;;;23.92;12.23;;;9.80;99.90;;;;;;5054912;28;20056;-74
2023/11/06 06:44:28;;;;;;;29.70;14.15;;;9.80;99.90;;;;;;5055011;28;20032;-74
2023/11/06 06:46:57;;;;;;;17.55;10.98;;;9.80;99.90;;;;;;5037800;28;20064;-75
2023/11/06 06:49:23;;;;;;;24.27;12.00;;;9.80;99.90;;;;;;5034800;28;20539;-74
2023/11/06 06:51:49;;;;;;;23.20;11.63;;;9.80;99.90;;;;;;5053578;28;20041;-73
2023/11/06 06:54:14;;;;;;;24.83;11.00;;;9.80;99.90;;;;;;5019456;28;20131;-75
2023/11/06 06:56:40;;;;;;;22.60;9.60;;;9.80;99.90;;;;;;5034801;28;20500;-73
2023/11/06 06:59:05;;;;;;;13.77;8.98;;;9.80;99.90;;;;;;5052522;28;20037;-73
2023/11/06 07:01:31;;;;;;;17.52;8.32;;;9.80;99.90;;;;;;5052181;28;20041;-74
2023/11/06 07:03:56;;;;;;;17.75;9.85;;;9.80;99.90;;;;;;5036272;28;20033;-73
2023/11/06 07:06:23;;;;;;;18.67;8.63;;;9.80;99.90;;;;;;5036211;28;20044;-74
2023/11/06 07:08:55;;;;;;;15.57;8.20;;;9.70;99.90;;;;;;5035988;28;20041;-73
2023/11/06 07:11:21;;;;;;;18.83;8.30;;;9.80;99.90;;;;;;5035846;28;20057;-74
2023/11/06 07:13:47;;;;;;;12.73;7.82;;;9.70;99.90;;;;;;5036256;28;20043;-73
2023/11/06 07:16:13;;;;;;;13.15;7.78;;;9.60;99.90;;;;;;5035736;28;20045;-73
2023/11/06 07:18:39;;;;;;;11.25;6.70;;;9.60;99.90;;;;;;5035688;28;20519;-74
2023/11/06 07:21:05;;;;;;;10.93;5.93;;;9.70;99.90;;;;;;5053558;28;20037;-73
2023/11/06 07:23:31;;;;;;;10.43;5.57;;;9.60;99.90;;;;;;5035896;28;20068;-73
2023/11/06 07:25:56;;;;;;;12.80;6.43;;;9.70;99.90;;;;;;5036135;28;20550;-73
2023/11/06 07:28:22;;;;;;;12.27;5.22;;;9.60;99.90;;;;;;5036601;28;20133;-74
2023/11/06 07:30:47;;;;;;;11.80;4.40;;;9.60;99.90;;;;;;5053926;28;20044;-74
2023/11/06 07:33:13;;;;;;;6.40;4.20;;;9.60;99.90;;;;;;5052489;28;20041;-74
2023/11/06 07:35:38;;;;;;;5.55;3.25;;;9.60;99.90;;;;;;5035808;28;20493;-74
2023/11/06 07:38:04;;;;;;;6.45;3.45;;;9.60;99.90;;;;;;5035843;28;20123;-74
2023/11/06 07:40:29;;;;;;;5.47;2.72;;;9.60;99.90;;;;;;5050762;28;20048;-74
2023/11/06 07:42:55;;;;;;;7.47;2.80;;;9.60;99.90;;;;;;5052640;28;20039;-75
2023/11/06 07:45:21;;;;;;;2.95;2.22;;;9.60;99.90;;;;;;5036022;28;20511;-74
2023/11/06 07:47:46;;;;;;;4.30;1.67;;;9.50;99.90;;;;;;5035960;28;20041;-74
2023/11/06 07:50:12;;;;;;;3.63;1.75;;;9.60;99.90;;;;;;5036976;28;20033;-75
2023/11/06 07:52:38;;;;;;;2.78;1.60;;;9.60;99.90;;;;;;5035771;28;20091;-74
2023/11/06 07:55:04;;;;;;;5.10;1.83;;;9.60;99.90;;;;;;5054454;28;20044;-74
2023/11/06 07:57:30;;;;;;;4.68;2.10;;;9.60;99.90;;;;;;5036120;28;20033;-75
2023/11/06 07:59:55;;;;;;;4.25;1.77;;;9.60;99.90;;;;;;5034393;28;20443;-74
2023/11/06 08:02:21;;;;;;;4.70;1.77;;;9.60;99.90;;;;;;5034637;28;20427;-74
2023/11/06 08:04:47;;;;;;;3.92;1.52;;;9.70;99.90;;;;;;5034679;28;20040;-73
2023/11/06 08:07:13;;;;;;;3.35;1.55;;;9.70;99.90;;;;;;5034003;28;20037;-74
2023/11/06 08:09:39;;;;;;;3.35;1.98;;;9.60;99.90;;;;;;5033939;28;20047;-74
2023/11/06 08:12:09;;;;;;;3.83;2.28;;;9.70;99.90;;;;;;5033501;28;20048;-74
2023/11/06 08:14:35;;;;;;;5.10;2.65;;;9.70;99.90;;;;;;5052097;28;20037;-74
2023/11/06 08:17:01;;;;;;;7.63;3.35;;;9.80;99.90;;;;;;5034610;28;20044;-74
2023/11/06 08:19:26;;;;;;;7.25;4.00;;;9.70;99.90;;;;;;5034300;28;20037;-74
2023/11/06 08:21:52;;;;;;;11.45;4.00;;;9.80;99.90;;;;;;5034217;28;20045;-74
2023/11/06 08:24:17;;;;;;;8.65;3.95;;;9.80;99.90;;;;;;5034380;28;20029;-74
2023/11/06 08:26:44;;;;;;;7.32;4.25;;;9.80;99.90;;;;;;5017646;28;20041;-74
2023/11/06 08:29:10;;;;;;;11.00;4.63;;;9.80;99.90;;;;;;5033691;28;20052;-74
2023/11/06 08:31:35;;;;;;;10.70;4.13;;;9.80;99.90;;;;;;5033571;28;20040;-73
2023/11/06 08:34:01;;;;;;;6.88;4.00;;;9.60;99.90;;;;;;5034552;28;20037;-73
2023/11/06 08:36:27;;;;;;;6.82;4.10;;;9.60;99.90;;;;;;5035933;28;20465;-74
2023/11/06 08:38:53;;;;;;;9.30;4.53;;;9.70;99.90;;;;;;5020533;28;20131;-74
2023/11/06 08:41:18;;;;;;;9.48;3.00;;;9.60;99.90;;;;;;5023220;28;20033;-74
2023/11/06 08:43:44;;;;;;;5.88;2.85;;;9.60;99.90;;;;;;5039338;28;20041;-74
2023/11/06 08:46:09;;;;;;;6.18;3.05;;;9.60;99.90;;;;;;5039344;28;20068;-74
2023/11/06 08:48:35;;;;;;;4.60;2.85;;;9.60;99.90;;;;;;5039068;28;20049;-75
2023/11/06 08:51:00;;;;;;;8.25;3.25;;;9.60;99.90;;;;;;5023251;28;20044;-75
2023/11/06 08:53:26;;;;;;;6.88;3.63;;;9.60;99.90;;;;;;5022995;28;20045;-74
2023/11/06 08:55:51;;;;;;;10.20;4.53;;;9.60;99.90;;;;;;5039992;28;20048;-74
2023/11/06 08:58:17;;;;;;;12.48;4.80;;;9.60;99.90;;;;;;5039984;28;20044;-74
2023/11/06 09:00:49;;;;;;;8.23;5.70;;;9.60;99.90;;;;;;5057369;28;20067;-74
2023/11/06 09:03:15;;;;;;;10.95;6.38;;;9.60;99.90;;;;;;5039170;28;20039;-74
2023/11/06 09:05:41;;;;;;;10.25;6.20;;;9.60;99.90;;;;;;5038933;28;20485;-74
2023/11/06 09:08:06;;;;;;;12.45;6.30;;;9.60;99.90;;;;;;5038953;28;20041;-74
2023/11/06 09:10:32;;;;;;;10.68;6.00;;;9.60;99.90;;;;;;5039319;28;20037;-75
2023/11/06 09:13:01;;;;;;;12.60;6.82;;;9.70;99.90;;;;;;5039131;28;20488;-75
2023/11/06 09:15:27;;;;;;;16.05;7.28;;;9.70;99.90;;;;;;5038991;28;20091;-74
2023/11/06 09:17:56;;;;;;;11.15;6.78;;;9.70;99.90;;;;;;5056796;28;20033;-74
2023/11/06 09:20:22;;;;;;;11.30;6.38;;;9.70;99.90;;;;;;5056709;28;20408;-74
2023/11/06 09:22:47;;;;;;;13.45;7.00;;;9.80;99.90;;;;;;5038900;28;20127;-74
2023/11/06 09:25:13;;;;;;;12.77;5.90;;;9.90;99.90;;;;;;5022503;28;20051;-74
2023/11/06 09:27:42;;;;;;;14.13;6.15;;;9.80;99.90;;;;;;5021884;28;20562;-75
2023/11/06 09:30:09;;;;;;;13.85;5.85;;;9.90;99.90;;;;;;5021287;28;20037;-75
2023/11/06 09:32:35;;;;;;;15.75;6.65;;;10.10;99.90;;;;;;5021477;28;20057;-74
2023/11/06 09:35:03;;;;;;;16.80;5.80;;;10.10;99.90;;;;;;5056376;28;20125;-75
2023/11/06 09:37:29;;;;;;;13.80;6.05;;;10.10;99.90;;;;;;5022077;28;20086;-74
2023/11/06 09:39:54;;;;;;;17.95;6.35;;;10.20;99.90;;;;;;5037968;28;20037;-75
2023/11/06 09:42:20;;;;;;;16.52;5.95;;;10.30;99.90;;;;;;5039638;28;20134;-75
2023/11/06 09:44:46;;;;;;;15.52;6.20;;;10.40;99.90;;;;;;5037664;28;20044;-74
2023/11/06 09:47:12;;;;;;;12.95;5.65;;;10.40;99.90;;;;;;5020567;28;20040;-75
2023/11/06 09:50:02;;;;;;;17.60;6.00;;;10.40;99.90;;;;;;5036325;28;20037;-75
2023/11/06 09:52:29;;;;;;;12.88;5.63;;;10.40;99.90;;;;;;5037136;28;20037;-74
2023/11/06 09:54:56;;;;;;;13.23;6.50;;;10.50;99.90;;;;;;5020129;28;20041;-75
2023/11/06 09:57:23;;;;;;;17.65;5.53;;;10.40;99.90;;;;;;5037054;28;20037;-74
2023/11/06 09:59:49;;;;;;;11.25;5.45;;;10.40;99.90;;;;;;5037390;28;20041;-74
2023/11/06 10:02:14;;;;;;;16.85;5.38;;;10.40;99.90;;;;;;5036863;28;20508;-74
2023/11/06 10:04:40;;;;;;;17.23;4.88;;;10.40;99.90;;;;;;5054768;28;20037;-75
2023/11/06 10:07:05;;;;;;;10.82;4.72;;;10.30;99.90;;;;;;5019866;28;20037;-75
2023/11/06 10:09:31;;;;;;;8.38;4.53;;;10.30;99.90;;;;;;5037074;28;20454;-75
2023/11/06 10:12:17;;;;;;;7.82;4.20;;;10.20;99.90;;;;;;5036342;28;20075;-75
2023/11/06 10:14:45;;;;;;;13.93;4.35;;;10.10;99.90;;;;;;5036516;28;20484;-75
2023/11/06 10:17:11;;;;;;;10.35;4.50;;;10.10;99.90;;;;;;5054803;28;20045;-74
2023/11/06 10:19:36;;;;;;;10.07;4.20;;;10.10;99.90;;;;;;5054669;28;20041;-74
2023/11/06 10:22:14;;;;;;;15.32;3.88;;;10.10;99.90;;;;;;5054414;28;20083;-75
2023/11/06 10:24:50;;;;;;;10.48;4.10;;;10.00;99.90;;;;;;5036404;28;20029;-74
2023/11/06 10:27:29;;;;;;;11.27;3.72;;;10.20;99.90;;;;;;5036491;28;20055;-75
2023/11/06 10:30:05;;;;;;;11.43;3.63;;;10.10;99.90;;;;;;5019426;28;20041;-74
2023/11/06 10:32:30;;;;;;;10.43;3.63;;;10.10;99.90;;;;;;5054478;28;20390;-74
2023/11/06 10:35:24;;;;;;;10.50;4.00;;;10.10;99.90;;;;;;5035952;28;20041;-74
2023/11/06 10:37:50;;;;;;;9.88;3.97;;;10.10;99.90;;;;;;5032537;28;20140;-74
2023/11/06 10:40:18;;;;;;;6.32;3.72;;;10.10;99.90;;;;;;5054145;28;20412;-74
2023/11/06 10:42:51;;;;;;;9.45;3.83;;;10.20;99.90;;;;;;5035720;28;20040;-74
2023/11/06 10:45:18;;;;;;;11.65;2.90;;;10.20;99.90;;;;;;5036502;28;20459;-75
2023/11/06 10:47:45;;;;;;;10.70;3.55;;;10.20;99.90;;;;;;5035423;28;20111;-75
2023/11/06 10:50:15;;;;;;;8.70;2.47;;;10.30;99.90;;;;;;5052916;28;20082;-74
2023/11/06 10:52:46;;;;;;;10.60;2.60;;;10.30;99.90;;;;;;5018290;28;20052;-75
2023/11/06 10:55:14;;;;;;;9.88;2.63;;;10.20;99.90;;;;;;5034852;28;20125;-74
2023/11/06 10:57:41;;;;;;;9.00;2.15;;;10.20;99.90;;;;;;5053204;28;20492;-75
2023/11/06 11:00:17;;;;;;;5.72;2.13;;;10.30;99.90;;;;;;5053757;28;20499;-75
2023/11/06 11:02:51;;;;;;;10.10;3.45;;;10.30;99.90;;;;;;5036337;28;20424;-74
2023/11/06 11:05:18;;;;;;;8.43;2.67;;;10.20;99.90;;;;;;5034819;28;20500;-75
2023/11/06 11:07:48;;;;;;;6.45;2.65;;;10.30;99.90;;;;;;5034646;28;20190;-75
2023/11/06 11:10:18;;;;;;;9.20;3.47;;;10.20;99.90;;;;;;5035269;28;20405;-75
2023/11/06 11:12:52;;;;;;;4.88;1.73;;;10.30;99.90;;;;;;5035290;28;20094;-75
2023/11/06 11:15:25;;;;;;;10.35;2.80;;;10.30;99.90;;;;;;5018607;28;20051;-75
2023/11/06 11:18:05;;;;;;;9.77;2.65;;;10.30;99.90;;;;;;5035253;28;20041;-75
2023/11/06 11:20:54;;;;;;;8.52;2.13;;;10.40;99.90;;;;;;5035272;28;20043;-75
2023/11/06 11:23:39;;;;;;;8.57;3.00;;;10.40;99.90;;;;;;5034065;28;20048;-75
2023/11/06 11:26:09;;;;;;;4.85;2.78;;;10.40;99.90;;;;;;5034003;28;20072;-75
2023/11/06 11:28:53;;;;;;;6.75;2.72;;;10.50;99.90;;;;;;5017812;28;20041;-74
2023/11/06 11:31:39;;;;;;;7.55;2.70;;;10.50;99.90;;;;;;5033928;28;20082;-75
2023/11/06 11:34:07;;;;;;;5.53;2.58;;;10.50;99.90;;;;;;5018092;28;20041;-75
2023/11/06 11:36:33;;;;;;;8.07;2.83;;;10.40;99.90;;;;;;5034031;28;20220;-75
2023/11/06 11:39:01;;;;;;;7.57;3.25;;;10.50;99.90;;;;;;5034228;28;20041;-75
2023/11/06 11:41:27;;;;;;;10.07;4.43;;;10.50;99.90;;;;;;5034727;28;20436;-75
2023/11/06 11:44:10;;;;;;;14.70;3.13;;;10.60;99.90;;;;;;5034645;28;20037;-75
2023/11/06 11:46:40;;;;;;;7.38;3.78;;;10.60;99.90;;;;;;5034815;28;20412;-75
2023/11/06 11:49:06;;;;;;;8.50;4.30;;;10.60;99.90;;;;;;4999452;28;1039741;-75
2023/11/06 11:51:49;;;;;;;10.63;3.50;;;10.60;99.90;;;;;;5035514;28;20045;-75
2023/11/06 11:54:27;;;;;;;8.23;3.75;;;10.70;99.90;;;;;;5019265;28;20064;-75
2023/11/06 11:56:53;;;;;;;12.55;3.88;;;10.80;99.90;;;;;;5035689;28;20041;-75
2023/11/06 11:59:18;;;;;;;13.23;5.13;;;10.80;99.90;;;;;;5034466;28;20492;-75
2023/11/06 12:01:45;;;;;;;7.40;3.90;;;10.80;99.90;;;;;;5034104;28;20047;-75
2023/11/06 12:04:20;;;;;;;7.75;3.38;;;10.80;99.90;;;;;;5052426;28;20095;-75
2023/11/06 12:06:58;;;;;;;7.10;3.30;;;10.70;99.90;;;;;;5034413;28;20037;-72
2023/11/06 12:09:24;;;;;;;12.90;3.85;;;10.80;99.90;;;;;;5051274;28;20041;-72
2023/11/06 12:11:50;;;;;;;7.90;4.05;;;10.70;99.90;;;;;;5032672;28;20075;-73
2023/11/06 12:14:16;;;;;;;7.10;3.55;;;10.70;99.90;;;;;;5032850;28;20048;-72
2023/11/06 12:16:48;;;;;;;8.10;3.33;;;10.70;99.90;;;;;;5050533;28;20451;-72
2023/11/06 12:19:13;;;;;;;8.90;3.60;;;10.70;99.90;;;;;;5032574;28;20631;-72
2023/11/06 12:21:39;;;;;;;8.45;3.47;;;10.70;99.90;;;;;;5032599;28;20120;-72
2023/11/06 12:24:08;;;;;;;8.77;3.55;;;10.70;99.90;;;;;;5051774;28;20036;-72
2023/11/06 12:26:35;;;;;;;9.10;3.95;;;10.60;99.90;;;;;;5051130;28;20496;-73
2023/11/06 12:29:01;;;;;;;6.50;4.10;;;10.60;99.90;;;;;;5033248;28;20063;-72
2023/11/06 12:31:37;;;;;;;6.10;3.70;;;10.60;99.90;;;;;;5051278;28;20041;-72
2023/11/06 12:34:03;;;;;;;11.95;3.38;;;10.60;99.90;;;;;;5051533;28;20052;-72
2023/11/06 12:36:31;;;;;;;10.45;3.20;;;10.50;99.90;;;;;;5051290;28;20477;-72
2023/11/06 12:38:58;;;;;;;10.32;3.83;;;10.50;99.90;;;;;;5050990;28;20052;-72
2023/11/06 12:41:31;;;;;;;10.43;4.55;;;10.40;99.90;;;;;;5033513;28;20037;-71
2023/11/06 12:44:00;;;;;;;11.05;3.95;;;10.40;99.90;;;;;;5031542;28;20501;-72
2023/11/06 12:46:39;;;;;;;9.77;3.63;;;10.40;99.90;;;;;;5031315;28;20531;-72